sensor_id;sensor_type;location;lat;lon;timestamp;pressure;altitude;pressure_sealevel;temperature;humidity
75923;BME280;64602;47.542;19.090;2024-03-25T00:01:05;99352.03;;;4.77;76.33
75923;BME280;64602;47.542;19.090;2024-03-25T00:06:06;99349.25;;;4.72;76.37
75923;BME280;64602;47.542;19.090;2024-03-25T00:11:07;99344.09;;;4.70;76.14
75923;BME280;64602;47.542;19.090;2024-03-25T00:16:09;99348.44;;;4.71;75.97
75923;BME280;64602;47.542;19.090;2024-03-25T00:21:10;99325.38;;;4.59;76.40
75923;BME280;64602;47.542;19.090;2024-03-25T00:26:11;99330.56;;;4.65;76.37
75923;BME280;64602;47.542;19.090;2024-03-25T00:31:12;99342.72;;;4.68;76.41
75923;BME280;64602;47.542;19.090;2024-03-25T00:36:13;99328.28;;;4.57;76.46
75923;BME280;64602;47.542;19.090;2024-03-25T00:41:14;99333.53;;;4.64;76.82
75923;BME280;64602;47.542;19.090;2024-03-25T00:46:15;99328.28;;;4.57;77.06
75923;BME280;64602;47.542;19.090;2024-03-25T00:51:17;99328.75;;;4.54;77.02
75923;BME280;64602;47.542;19.090;2024-03-25T00:56:18;99312.41;;;4.44;76.85
75923;BME280;64602;47.542;19.090;2024-03-25T01:01:19;99313.13;;;4.39;77.14
75923;BME280;64602;47.542;19.090;2024-03-25T01:06:20;99322.47;;;4.37;77.35
75923;BME280;64602;47.542;19.090;2024-03-25T01:11:22;99316.56;;;4.35;77.47
75923;BME280;64602;47.542;19.090;2024-03-25T01:16:23;99318.66;;;4.33;77.67
75923;BME280;64602;47.542;19.090;2024-03-25T01:21:25;99327.50;;;4.45;77.51
75923;BME280;64602;47.542;19.090;2024-03-25T01:26:27;99322.75;;;4.35;77.51
75923;BME280;64602;47.542;19.090;2024-03-25T01:31:28;99329.03;;;4.41;77.47
75923;BME280;64602;47.542;19.090;2024-03-25T01:36:29;99315.16;;;4.32;77.57
75923;BME280;64602;47.542;19.090;2024-03-25T01:41:30;99325.16;;;4.37;77.47
75923;BME280;64602;47.542;19.090;2024-03-25T01:46:31;99311.62;;;4.32;77.52
75923;BME280;64602;47.542;19.090;2024-03-25T01:51:33;99319.78;;;4.37;77.49
75923;BME280;64602;47.542;19.090;2024-03-25T01:56:35;99301.16;;;4.30;77.77
75923;BME280;64602;47.542;19.090;2024-03-25T02:01:37;99290.41;;;4.30;77.70
75923;BME280;64602;47.542;19.090;2024-03-25T02:06:40;99316.06;;;4.38;77.71
75923;BME280;64602;47.542;19.090;2024-03-25T02:11:42;99296.22;;;4.27;77.75
75923;BME280;64602;47.542;19.090;2024-03-25T02:16:43;99305.94;;;4.28;77.47
75923;BME280;64602;47.542;19.090;2024-03-25T02:21:44;99308.03;;;4.26;77.57
75923;BME280;64602;47.542;19.090;2024-03-25T02:26:46;99319.38;;;4.28;77.57
75923;BME280;64602;47.542;19.090;2024-03-25T02:31:47;99312.72;;;4.19;77.54
75923;BME280;64602;47.542;19.090;2024-03-25T02:36:49;99324.75;;;4.28;77.60
75923;BME280;64602;47.542;19.090;2024-03-25T02:41:50;99301.84;;;4.25;77.52
75923;BME280;64602;47.542;19.090;2024-03-25T02:46:52;99314.91;;;4.34;77.47
75923;BME280;64602;47.542;19.090;2024-03-25T02:51:53;99306.97;;;4.27;77.22
75923;BME280;64602;47.542;19.090;2024-03-25T02:56:55;99310.94;;;4.24;77.45
75923;BME280;64602;47.542;19.090;2024-03-25T03:01:56;99304.44;;;4.20;77.60
75923;BME280;64602;47.542;19.090;2024-03-25T03:06:57;99314.56;;;4.30;77.41
75923;BME280;64602;47.542;19.090;2024-03-25T03:11:58;99332.53;;;4.29;77.61
75923;BME280;64602;47.542;19.090;2024-03-25T03:16:59;99312.72;;;4.19;77.45
75923;BME280;64602;47.542;19.090;2024-03-25T03:22:00;99329.28;;;4.27;77.40
75923;BME280;64602;47.542;19.090;2024-03-25T03:27:01;99344.72;;;4.32;77.37
75923;BME280;64602;47.542;19.090;2024-03-25T03:32:03;99335.47;;;4.40;76.89
75923;BME280;64602;47.542;19.090;2024-03-25T03:37:04;99350.78;;;4.68;76.12
75923;BME280;64602;47.542;19.090;2024-03-25T03:42:05;99344.66;;;4.84;75.33
75923;BME280;64602;47.542;19.090;2024-03-25T03:47:06;99329.91;;;4.87;74.69
75923;BME280;64602;47.542;19.090;2024-03-25T03:52:07;99348.28;;;5.07;74.11
75923;BME280;64602;47.542;19.090;2024-03-25T03:57:09;99341.28;;;5.06;73.68
75923;BME280;64602;47.542;19.090;2024-03-25T04:02:10;99356.38;;;5.24;73.56
75923;BME280;64602;47.542;19.090;2024-03-25T04:07:11;99344.81;;;5.23;72.90
75923;BME280;64602;47.542;19.090;2024-03-25T04:12:12;99359.28;;;5.34;72.57
75923;BME280;64602;47.542;19.090;2024-03-25T04:17:13;99366.03;;;5.37;72.38
75923;BME280;64602;47.542;19.090;2024-03-25T04:22:14;99355.50;;;5.35;72.43
75923;BME280;64602;47.542;19.090;2024-03-25T04:27:15;99353.97;;;5.39;72.12
75923;BME280;64602;47.542;19.090;2024-03-25T04:32:16;99364.62;;;5.51;71.71
75923;BME280;64602;47.542;19.090;2024-03-25T04:37:17;99386.75;;;5.70;70.68
75923;BME280;64602;47.542;19.090;2024-03-25T04:42:19;99384.47;;;5.78;71.05
75923;BME280;64602;47.542;19.090;2024-03-25T04:47:20;99389.94;;;5.84;70.71
75923;BME280;64602;47.542;19.090;2024-03-25T04:52:21;99400.56;;;5.90;70.25
75923;BME280;64602;47.542;19.090;2024-03-25T04:57:24;99399.59;;;5.96;69.95
75923;BME280;64602;47.542;19.090;2024-03-25T05:02:25;99389.09;;;5.95;69.65
75923;BME280;64602;47.542;19.090;2024-03-25T05:07:26;99398.28;;;5.99;69.23
75923;BME280;64602;47.542;19.090;2024-03-25T05:12:27;99410.50;;;6.07;68.83
75923;BME280;64602;47.542;19.090;2024-03-25T05:17:30;99418.78;;;6.17;68.85
75923;BME280;64602;47.542;19.090;2024-03-25T05:22:32;99406.03;;;6.12;68.30
75923;BME280;64602;47.542;19.090;2024-03-25T05:27:33;99431.00;;;6.25;68.06
75923;BME280;64602;47.542;19.090;2024-03-25T05:32:34;99423.97;;;6.24;68.66
75923;BME280;64602;47.542;19.090;2024-03-25T05:37:35;99423.50;;;6.27;68.35
75923;BME280;64602;47.542;19.090;2024-03-25T05:42:37;99453.03;;;6.38;68.26
75923;BME280;64602;47.542;19.090;2024-03-25T05:47:39;99437.25;;;6.47;68.59
75923;BME280;64602;47.542;19.090;2024-03-25T05:52:40;99455.81;;;6.44;68.14
75923;BME280;64602;47.542;19.090;2024-03-25T05:57:41;99449.12;;;6.29;68.75
75923;BME280;64602;47.542;19.090;2024-03-25T06:02:42;99451.81;;;6.29;69.37
75923;BME280;64602;47.542;19.090;2024-03-25T06:07:43;99460.22;;;6.33;70.83
75923;BME280;64602;47.542;19.090;2024-03-25T06:12:44;99454.66;;;6.39;71.10
75923;BME280;64602;47.542;19.090;2024-03-25T06:17:45;99452.09;;;6.50;70.94
75923;BME280;64602;47.542;19.090;2024-03-25T06:22:47;99464.00;;;6.71;70.54
75923;BME280;64602;47.542;19.090;2024-03-25T06:27:54;99461.94;;;7.00;70.20
75923;BME280;64602;47.542;19.090;2024-03-25T06:32:55;99454.56;;;7.17;69.56
75923;BME280;64602;47.542;19.090;2024-03-25T06:38:15;99455.00;;;7.58;68.76
75923;BME280;64602;47.542;19.090;2024-03-25T06:43:16;99455.16;;;7.74;67.70
75923;BME280;64602;47.542;19.090;2024-03-25T06:48:19;99451.00;;;7.93;66.65
75923;BME280;64602;47.542;19.090;2024-03-25T06:53:21;99470.41;;;8.54;64.97
75923;BME280;64602;47.542;19.090;2024-03-25T06:58:24;99462.19;;;8.87;64.48
75923;BME280;64602;47.542;19.090;2024-03-25T07:03:26;99470.59;;;8.95;63.11
75923;BME280;64602;47.542;19.090;2024-03-25T07:08:27;99496.94;;;9.10;62.08
75923;BME280;64602;47.542;19.090;2024-03-25T07:13:29;99496.69;;;9.22;62.00
75923;BME280;64602;47.542;19.090;2024-03-25T07:18:30;99484.50;;;9.25;63.69
75923;BME280;64602;47.542;19.090;2024-03-25T07:23:31;99490.47;;;8.69;62.46
75923;BME280;64602;47.542;19.090;2024-03-25T07:28:32;99482.63;;;9.20;61.76
75923;BME280;64602;47.542;19.090;2024-03-25T07:33:33;99490.84;;;9.56;59.92
75923;BME280;64602;47.542;19.090;2024-03-25T07:38:34;99489.84;;;10.08;58.50
75923;BME280;64602;47.542;19.090;2024-03-25T07:43:35;99508.78;;;9.77;59.44
75923;BME280;64602;47.542;19.090;2024-03-25T07:48:37;99488.63;;;9.27;60.15
75923;BME280;64602;47.542;19.090;2024-03-25T07:53:39;99494.16;;;9.00;59.49
75923;BME280;64602;47.542;19.090;2024-03-25T07:58:40;99503.47;;;9.25;58.39
75923;BME280;64602;47.542;19.090;2024-03-25T08:03:41;99515.28;;;9.66;58.20
75923;BME280;64602;47.542;19.090;2024-03-25T08:08:42;99501.44;;;9.78;56.74
75923;BME280;64602;47.542;19.090;2024-03-25T08:13:43;99517.22;;;10.01;56.22
75923;BME280;64602;47.542;19.090;2024-03-25T08:18:45;99518.00;;;9.92;55.61
75923;BME280;64602;47.542;19.090;2024-03-25T08:23:46;99519.91;;;10.01;56.21
75923;BME280;64602;47.542;19.090;2024-03-25T08:28:47;99510.97;;;10.01;56.13
75923;BME280;64602;47.542;19.090;2024-03-25T08:33:50;99520.25;;;10.31;55.24
75923;BME280;64602;47.542;19.090;2024-03-25T08:38:51;99502.81;;;10.73;53.19
75923;BME280;64602;47.542;19.090;2024-03-25T08:43:52;99507.66;;;10.96;53.48
75923;BME280;64602;47.542;19.090;2024-03-25T08:48:53;99513.22;;;11.30;52.59
75923;BME280;64602;47.542;19.090;2024-03-25T08:53:54;99513.16;;;10.65;52.49
75923;BME280;64602;47.542;19.090;2024-03-25T08:58:55;99515.34;;;10.43;53.11
75923;BME280;64602;47.542;19.090;2024-03-25T09:03:58;99509.09;;;10.12;53.57
75923;BME280;64602;47.542;19.090;2024-03-25T09:08:59;99500.69;;;10.13;54.19
75923;BME280;64602;47.542;19.090;2024-03-25T09:14:19;99518.47;;;11.06;52.40
75923;BME280;64602;47.542;19.090;2024-03-25T09:19:20;99514.19;;;10.90;52.08
75923;BME280;64602;47.542;19.090;2024-03-25T09:24:21;99507.72;;;10.76;52.45
75923;BME280;64602;47.542;19.090;2024-03-25T09:29:22;99511.94;;;11.18;51.05
75923;BME280;64602;47.542;19.090;2024-03-25T09:34:23;99494.38;;;10.84;51.00
75923;BME280;64602;47.542;19.090;2024-03-25T09:39:25;99509.09;;;10.58;53.44
75923;BME280;64602;47.542;19.090;2024-03-25T09:44:27;99506.37;;;10.63;52.50
75923;BME280;64602;47.542;19.090;2024-03-25T09:49:31;99509.09;;;10.68;52.76
75923;BME280;64602;47.542;19.090;2024-03-25T09:54:33;99492.00;;;10.57;52.05
75923;BME280;64602;47.542;19.090;2024-03-25T09:59:34;99491.22;;;10.52;49.53
75923;BME280;64602;47.542;19.090;2024-03-25T10:04:40;99505.53;;;10.67;49.71
75923;BME280;64602;47.542;19.090;2024-03-25T10:09:45;99509.78;;;12.14;47.56
75923;BME280;64602;47.542;19.090;2024-03-25T10:14:46;99496.44;;;13.00;44.93
75923;BME280;64602;47.542;19.090;2024-03-25T10:19:47;99494.09;;;14.31;42.18
75923;BME280;64602;47.542;19.090;2024-03-25T10:24:48;99497.97;;;13.92;42.50
75923;BME280;64602;47.542;19.090;2024-03-25T10:29:54;99501.94;;;14.51;41.27
75923;BME280;64602;47.542;19.090;2024-03-25T10:34:58;99499.97;;;14.38;39.83
75923;BME280;64602;47.542;19.090;2024-03-25T10:40:01;99490.69;;;15.13;39.07
75923;BME280;64602;47.542;19.090;2024-03-25T10:45:02;99491.78;;;15.90;37.21
75923;BME280;64602;47.542;19.090;2024-03-25T10:50:12;99483.63;;;14.52;39.22
75923;BME280;64602;47.542;19.090;2024-03-25T10:55:16;99496.28;;;13.77;40.70
75923;BME280;64602;47.542;19.090;2024-03-25T11:00:19;99495.66;;;15.25;38.77
75923;BME280;64602;47.542;19.090;2024-03-25T11:05:20;99500.00;;;16.58;37.16
75923;BME280;64602;47.542;19.090;2024-03-25T11:10:29;99495.44;;;16.53;36.50
75923;BME280;64602;47.542;19.090;2024-03-25T11:15:36;99492.25;;;15.70;36.94
75923;BME280;64602;47.542;19.090;2024-03-25T11:20:39;99504.22;;;13.36;44.67
75923;BME280;64602;47.542;19.090;2024-03-25T11:25:41;99526.44;;;12.07;48.28
75923;BME280;64602;47.542;19.090;2024-03-25T11:30:43;99504.81;;;11.82;53.14
75923;BME280;64602;47.542;19.090;2024-03-25T11:35:46;99494.75;;;11.87;53.63
75923;BME280;64602;47.542;19.090;2024-03-25T11:40:47;99491.69;;;13.54;50.19
75923;BME280;64602;47.542;19.090;2024-03-25T11:45:48;99488.59;;;12.93;49.16
75923;BME280;64602;47.542;19.090;2024-03-25T11:50:50;99500.28;;;12.46;47.47
75923;BME280;64602;47.542;19.090;2024-03-25T11:55:51;99496.28;;;11.54;46.03
75923;BME280;64602;47.542;19.090;2024-03-25T12:00:52;99494.84;;;13.42;44.20
75923;BME280;64602;47.542;19.090;2024-03-25T12:05:55;99493.62;;;15.03;40.82
75923;BME280;64602;47.542;19.090;2024-03-25T12:10:56;99499.75;;;15.78;39.49
75923;BME280;64602;47.542;19.090;2024-03-25T12:16:16;99486.81;;;15.28;40.08
75923;BME280;64602;47.542;19.090;2024-03-25T12:21:18;99484.78;;;13.61;43.20
75923;BME280;64602;47.542;19.090;2024-03-25T12:26:20;99521.13;;;12.55;46.58
75923;BME280;64602;47.542;19.090;2024-03-25T12:31:23;99530.00;;;12.03;49.78
75923;BME280;64602;47.542;19.090;2024-03-25T12:36:25;99529.50;;;12.30;49.56
75923;BME280;64602;47.542;19.090;2024-03-25T12:41:27;99505.94;;;13.51;46.31
75923;BME280;64602;47.542;19.090;2024-03-25T12:46:28;99502.72;;;14.85;43.71
75923;BME280;64602;47.542;19.090;2024-03-25T12:51:30;99513.87;;;15.30;42.62
75923;BME280;64602;47.542;19.090;2024-03-25T12:56:31;99501.94;;;14.19;42.14
75923;BME280;64602;47.542;19.090;2024-03-25T13:01:32;99517.88;;;12.82;44.95
75923;BME280;64602;47.542;19.090;2024-03-25T13:06:34;99511.75;;;12.67;43.39
75923;BME280;64602;47.542;19.090;2024-03-25T13:11:35;99516.53;;;14.61;40.65
75923;BME280;64602;47.542;19.090;2024-03-25T13:16:37;99527.09;;;15.78;39.33
75923;BME280;64602;47.542;19.090;2024-03-25T13:21:38;99517.25;;;14.15;41.58
75923;BME280;64602;47.542;19.090;2024-03-25T13:26:39;99516.62;;;13.66;42.66
75923;BME280;64602;47.542;19.090;2024-03-25T13:31:40;99524.75;;;13.28;43.58
75923;BME280;64602;47.542;19.090;2024-03-25T13:36:41;99528.94;;;13.15;43.60
75923;BME280;64602;47.542;19.090;2024-03-25T13:41:43;99526.13;;;15.32;40.36
75923;BME280;64602;47.542;19.090;2024-03-25T13:46:45;99522.00;;;13.71;43.28
75923;BME280;64602;47.542;19.090;2024-03-25T13:51:47;99516.22;;;13.11;44.54
75923;BME280;64602;47.542;19.090;2024-03-25T13:56:48;99525.66;;;12.36;45.20
75923;BME280;64602;47.542;19.090;2024-03-25T14:01:49;99520.19;;;12.41;45.15
75923;BME280;64602;47.542;19.090;2024-03-25T14:06:50;99524.28;;;15.14;40.44
75923;BME280;64602;47.542;19.090;2024-03-25T14:11:51;99522.53;;;19.09;31.96
75923;BME280;64602;47.542;19.090;2024-03-25T14:16:52;99517.91;;;14.44;38.21
75923;BME280;64602;47.542;19.090;2024-03-25T14:21:53;99499.88;;;15.31;37.45
75923;BME280;64602;47.542;19.090;2024-03-25T14:26:55;99513.19;;;13.98;39.11
75923;BME280;64602;47.542;19.090;2024-03-25T14:31:56;99529.63;;;21.97;28.74
75923;BME280;64602;47.542;19.090;2024-03-25T14:36:57;99523.34;;;27.74;20.55
75923;BME280;64602;47.542;19.090;2024-03-25T14:41:58;99515.13;;;30.54;18.81
75923;BME280;64602;47.542;19.090;2024-03-25T14:46:59;99514.16;;;31.30;17.74
75923;BME280;64602;47.542;19.090;2024-03-25T14:52:00;99529.53;;;31.98;17.61
75923;BME280;64602;47.542;19.090;2024-03-25T14:57:04;99520.22;;;30.70;18.02
75923;BME280;64602;47.542;19.090;2024-03-25T15:02:06;99521.44;;;30.65;18.54
75923;BME280;64602;47.542;19.090;2024-03-25T15:07:07;99518.47;;;30.16;19.27
75923;BME280;64602;47.542;19.090;2024-03-25T15:12:08;99512.34;;;27.92;21.96
75923;BME280;64602;47.542;19.090;2024-03-25T15:17:09;99517.97;;;26.21;23.50
75923;BME280;64602;47.542;19.090;2024-03-25T15:22:10;99496.47;;;25.08;24.12
75923;BME280;64602;47.542;19.090;2024-03-25T15:27:11;99502.38;;;22.83;26.97
75923;BME280;64602;47.542;19.090;2024-03-25T15:32:13;99498.34;;;22.81;26.92
75923;BME280;64602;47.542;19.090;2024-03-25T15:37:14;99488.13;;;19.53;30.38
75923;BME280;64602;47.542;19.090;2024-03-25T15:42:16;99498.09;;;20.30;30.26
75923;BME280;64602;47.542;19.090;2024-03-25T15:47:18;99494.31;;;19.20;30.28
75923;BME280;64602;47.542;19.090;2024-03-25T15:52:19;99493.34;;;16.81;34.25
75923;BME280;64602;47.542;19.090;2024-03-25T15:57:20;99502.53;;;15.36;36.35
75923;BME280;64602;47.542;19.090;2024-03-25T16:02:21;99507.84;;;13.88;39.67
75923;BME280;64602;47.542;19.090;2024-03-25T16:07:22;99516.38;;;12.95;42.50
75923;BME280;64602;47.542;19.090;2024-03-25T16:12:24;99510.38;;;12.69;43.83
75923;BME280;64602;47.542;19.090;2024-03-25T16:17:25;99503.03;;;12.40;45.56
75923;BME280;64602;47.542;19.090;2024-03-25T16:22:26;99503.59;;;12.37;45.66
75923;BME280;64602;47.542;19.090;2024-03-25T16:27:27;99493.88;;;11.97;46.62
75923;BME280;64602;47.542;19.090;2024-03-25T16:32:35;99508.78;;;11.50;47.81
75923;BME280;64602;47.542;19.090;2024-03-25T16:37:37;99508.47;;;10.97;47.45
75923;BME280;64602;47.542;19.090;2024-03-25T16:42:38;99511.78;;;10.63;48.38
75923;BME280;64602;47.542;19.090;2024-03-25T16:47:40;99496.94;;;10.30;49.45
75923;BME280;64602;47.542;19.090;2024-03-25T16:52:41;99495.53;;;10.17;49.93
75923;BME280;64602;47.542;19.090;2024-03-25T16:57:45;99513.41;;;9.92;50.55
75923;BME280;64602;47.542;19.090;2024-03-25T17:02:46;99523.97;;;9.83;50.75
75923;BME280;64602;47.542;19.090;2024-03-25T17:07:47;99520.97;;;9.70;51.14
75923;BME280;64602;47.542;19.090;2024-03-25T17:12:49;99520.91;;;9.49;51.77
75923;BME280;64602;47.542;19.090;2024-03-25T17:17:51;99519.44;;;9.21;52.44
75923;BME280;64602;47.542;19.090;2024-03-25T17:22:52;99533.75;;;9.16;52.99
75923;BME280;64602;47.542;19.090;2024-03-25T17:27:53;99526.66;;;9.05;52.80
75923;BME280;64602;47.542;19.090;2024-03-25T17:32:55;99538.25;;;8.95;52.87
75923;BME280;64602;47.542;19.090;2024-03-25T17:37:56;99547.22;;;8.96;53.39
75923;BME280;64602;47.542;19.090;2024-03-25T17:42:57;99558.00;;;8.91;53.46
75923;BME280;64602;47.542;19.090;2024-03-25T17:47:58;99543.03;;;8.78;53.82
75923;BME280;64602;47.542;19.090;2024-03-25T17:52:59;99544.06;;;8.67;53.99
75923;BME280;64602;47.542;19.090;2024-03-25T17:58:00;99556.84;;;8.76;54.07
75923;BME280;64602;47.542;19.090;2024-03-25T18:03:03;99564.56;;;8.63;54.56
75923;BME280;64602;47.542;19.090;2024-03-25T18:08:04;99553.69;;;8.52;54.83
75923;BME280;64602;47.542;19.090;2024-03-25T18:13:06;99551.72;;;8.43;55.57
75923;BME280;64602;47.542;19.090;2024-03-25T18:18:08;99568.44;;;8.40;56.26
75923;BME280;64602;47.542;19.090;2024-03-25T18:23:11;99565.28;;;8.21;57.03
75923;BME280;64602;47.542;19.090;2024-03-25T18:28:13;99569.00;;;8.14;57.04
75923;BME280;64602;47.542;19.090;2024-03-25T18:33:14;99571.47;;;8.16;57.15
75923;BME280;64602;47.542;19.090;2024-03-25T18:38:15;99580.56;;;8.10;58.04
75923;BME280;64602;47.542;19.090;2024-03-25T18:43:16;99575.63;;;8.02;58.56
75923;BME280;64602;47.542;19.090;2024-03-25T18:48:18;99587.09;;;7.87;59.33
75923;BME280;64602;47.542;19.090;2024-03-25T18:53:20;99589.13;;;7.75;59.83
75923;BME280;64602;47.542;19.090;2024-03-25T18:58:21;99585.44;;;7.59;60.09
75923;BME280;64602;47.542;19.090;2024-03-25T19:03:22;99581.59;;;7.55;60.24
75923;BME280;64602;47.542;19.090;2024-03-25T19:08:23;99592.09;;;7.51;60.85
75923;BME280;64602;47.542;19.090;2024-03-25T19:13:24;99583.53;;;7.37;61.35
75923;BME280;64602;47.542;19.090;2024-03-25T19:18:26;99595.72;;;7.40;61.65
75923;BME280;64602;47.542;19.090;2024-03-25T19:23:27;99594.44;;;7.25;62.01
75923;BME280;64602;47.542;19.090;2024-03-25T19:28:28;99606.09;;;7.26;62.06
75923;BME280;64602;47.542;19.090;2024-03-25T19:33:29;99595.69;;;7.18;62.29
75923;BME280;64602;47.542;19.090;2024-03-25T19:38:31;99593.84;;;7.01;62.87
75923;BME280;64602;47.542;19.090;2024-03-25T19:43:32;99600.56;;;6.99;62.95
75923;BME280;64602;47.542;19.090;2024-03-25T19:48:33;99622.56;;;6.91;63.37
75923;BME280;64602;47.542;19.090;2024-03-25T19:53:34;99620.09;;;6.89;63.31
75923;BME280;64602;47.542;19.090;2024-03-25T19:58:36;99607.47;;;6.73;63.98
75923;BME280;64602;47.542;19.090;2024-03-25T20:03:38;99625.78;;;6.71;64.24
75923;BME280;64602;47.542;19.090;2024-03-25T20:08:39;99619.97;;;6.62;64.71
75923;BME280;64602;47.542;19.090;2024-03-25T20:13:41;99630.91;;;6.55;64.98
75923;BME280;64602;47.542;19.090;2024-03-25T20:18:42;99641.13;;;6.53;64.89
75923;BME280;64602;47.542;19.090;2024-03-25T20:23:43;99638.22;;;6.43;65.35
75923;BME280;64602;47.542;19.090;2024-03-25T20:28:45;99631.94;;;6.37;65.67
75923;BME280;64602;47.542;19.090;2024-03-25T20:33:46;99629.06;;;6.27;66.49
75923;BME280;64602;47.542;19.090;2024-03-25T20:38:47;99622.34;;;6.13;66.57
75923;BME280;64602;47.542;19.090;2024-03-25T20:43:48;99635.50;;;6.09;67.25
75923;BME280;64602;47.542;19.090;2024-03-25T20:48:50;99640.56;;;5.94;67.68
75923;BME280;64602;47.542;19.090;2024-03-25T20:53:51;99639.19;;;5.79;68.25
75923;BME280;64602;47.542;19.090;2024-03-25T20:58:52;99653.03;;;5.71;68.90
75923;BME280;64602;47.542;19.090;2024-03-25T21:03:53;99652.44;;;5.69;69.09
75923;BME280;64602;47.542;19.090;2024-03-25T21:08:54;99663.50;;;5.56;69.50
75923;BME280;64602;47.542;19.090;2024-03-25T21:13:55;99644.41;;;5.46;69.89
75923;BME280;64602;47.542;19.090;2024-03-25T21:18:56;99662.53;;;5.50;70.00
75923;BME280;64602;47.542;19.090;2024-03-25T21:23:57;99648.28;;;5.38;70.19
75923;BME280;64602;47.542;19.090;2024-03-25T21:28:58;99665.50;;;5.49;70.26
75923;BME280;64602;47.542;19.090;2024-03-25T21:33:59;99666.22;;;5.32;70.85
75923;BME280;64602;47.542;19.090;2024-03-25T21:39:01;99674.50;;;5.19;71.06
75923;BME280;64602;47.542;19.090;2024-03-25T21:44:02;99673.56;;;5.13;71.76
75923;BME280;64602;47.542;19.090;2024-03-25T21:49:03;99662.47;;;4.98;72.14
75923;BME280;64602;47.542;19.090;2024-03-25T21:54:04;99684.22;;;4.97;72.33
75923;BME280;64602;47.542;19.090;2024-03-25T21:59:05;99672.63;;;4.96;72.35
75923;BME280;64602;47.542;19.090;2024-03-25T22:04:07;99676.38;;;4.83;73.14
75923;BME280;64602;47.542;19.090;2024-03-25T22:09:08;99673.56;;;4.78;73.35
75923;BME280;64602;47.542;19.090;2024-03-25T22:14:09;99668.16;;;4.66;74.23
75923;BME280;64602;47.542;19.090;2024-03-25T22:19:10;99670.94;;;4.60;74.71
75923;BME280;64602;47.542;19.090;2024-03-25T22:24:11;99683.56;;;4.59;75.27
75923;BME280;64602;47.542;19.090;2024-03-25T22:29:12;99684.16;;;4.61;74.95
75923;BME280;64602;47.542;19.090;2024-03-25T22:34:14;99684.47;;;4.53;75.68
75923;BME280;64602;47.542;19.090;2024-03-25T22:39:15;99676.06;;;4.49;75.92
75923;BME280;64602;47.542;19.090;2024-03-25T22:44:17;99686.44;;;4.46;76.09
75923;BME280;64602;47.542;19.090;2024-03-25T22:49:18;99686.94;;;4.24;77.28
75923;BME280;64602;47.542;19.090;2024-03-25T22:54:19;99697.94;;;4.23;77.35
75923;BME280;64602;47.542;19.090;2024-03-25T22:59:20;99711.25;;;4.29;77.40
75923;BME280;64602;47.542;19.090;2024-03-25T23:04:21;99703.94;;;4.37;77.27
75923;BME280;64602;47.542;19.090;2024-03-25T23:09:23;99711.97;;;4.25;77.47
75923;BME280;64602;47.542;19.090;2024-03-25T23:14:24;99706.00;;;4.23;77.72
75923;BME280;64602;47.542;19.090;2024-03-25T23:19:25;99682.59;;;4.12;77.92
75923;BME280;64602;47.542;19.090;2024-03-25T23:24:26;99705.19;;;4.04;78.48
75923;BME280;64602;47.542;19.090;2024-03-25T23:29:27;99705.53;;;3.96;78.56
75923;BME280;64602;47.542;19.090;2024-03-25T23:34:28;99698.75;;;3.93;78.74
75923;BME280;64602;47.542;19.090;2024-03-25T23:39:29;99679.75;;;3.76;79.08
75923;BME280;64602;47.542;19.090;2024-03-25T23:44:31;99716.63;;;3.81;79.18
75923;BME280;64602;47.542;19.090;2024-03-25T23:49:32;99709.25;;;3.76;79.55
75923;BME280;64602;47.542;19.090;2024-03-25T23:54:33;99706.03;;;3.68;79.65
75923;BME280;64602;47.542;19.090;2024-03-25T23:59:34;99697.22;;;3.42;80.30
